createdAt,value
2018-07-09T00:01:08.435Z,21.00
2018-07-09T00:03:37.591Z,21.00
2018-07-09T00:06:06.853Z,21.00
2018-07-09T00:08:36.037Z,20.90
2018-07-09T00:11:07.336Z,20.90
2018-07-09T00:13:38.581Z,20.70
2018-07-09T00:16:07.765Z,20.70
2018-07-09T00:18:36.893Z,20.80
2018-07-09T00:21:06.145Z,20.80
2018-07-09T00:23:35.327Z,20.70
2018-07-09T00:26:04.532Z,20.70
2018-07-09T00:28:34.015Z,20.70
2018-07-09T00:31:03.264Z,20.60
2018-07-09T00:33:32.370Z,20.50
2018-07-09T00:36:01.538Z,20.50
2018-07-09T00:38:30.660Z,20.40
2018-07-09T00:40:59.912Z,20.40
2018-07-09T00:43:29.050Z,20.50
2018-07-09T00:45:58.269Z,20.50
2018-07-09T00:48:27.453Z,20.50
2018-07-09T00:55:54.146Z,20.50
2018-07-09T00:58:23.380Z,20.30
2018-07-09T01:00:53.236Z,20.30
2018-07-09T01:03:22.406Z,20.30
2018-07-09T01:05:51.733Z,20.30
2018-07-09T01:08:20.884Z,20.20
2018-07-09T01:11:01.543Z,20.00
2018-07-09T01:13:41.567Z,20.00
2018-07-09T01:16:11.557Z,20.10
2018-07-09T01:18:40.990Z,20.10
2018-07-09T01:21:13.034Z,20.10
2018-07-09T01:23:42.330Z,20.10
2018-07-09T01:26:11.512Z,20.10
2018-07-09T01:28:41.670Z,20.00
2018-07-09T01:31:10.857Z,20.00
2018-07-09T01:33:40.043Z,20.00
2018-07-09T01:38:37.959Z,19.70
2018-07-09T01:41:07.132Z,19.80
2018-07-09T01:43:36.404Z,19.80
2018-07-09T01:46:05.578Z,19.90
2018-07-09T01:48:34.705Z,19.70
2018-07-09T01:51:03.915Z,19.80
2018-07-09T01:53:33.090Z,19.80
2018-07-09T01:56:02.286Z,19.80
2018-07-09T01:58:31.419Z,19.80
2018-07-09T02:01:00.623Z,19.80
2018-07-09T02:03:29.826Z,19.90
2018-07-09T02:05:59.007Z,19.90
2018-07-09T02:08:28.171Z,19.90
2018-07-09T02:10:57.364Z,19.90
2018-07-09T02:13:26.576Z,19.80
2018-07-09T02:15:55.784Z,19.80
2018-07-09T02:18:24.947Z,19.80
2018-07-09T02:20:54.159Z,19.70
2018-07-09T02:23:23.316Z,19.70
2018-07-09T02:25:52.483Z,19.70
2018-07-09T02:28:21.667Z,19.50
2018-07-09T02:30:50.846Z,19.00
2018-07-09T02:33:20.020Z,19.00
2018-07-09T02:35:49.177Z,18.90
2018-07-09T02:38:18.579Z,18.90
2018-07-09T02:40:47.715Z,18.70
2018-07-09T02:43:16.877Z,18.60
2018-07-09T02:45:46.058Z,18.70
2018-07-09T02:48:15.225Z,19.00
2018-07-09T02:50:44.364Z,19.00
2018-07-09T02:53:13.566Z,19.10
2018-07-09T02:55:42.736Z,19.20
2018-07-09T02:58:11.882Z,19.20
2018-07-09T03:00:41.095Z,19.10
2018-07-09T03:03:10.228Z,19.20
2018-07-09T03:05:39.384Z,19.20
2018-07-09T03:08:08.530Z,19.20
2018-07-09T03:10:37.691Z,19.30
2018-07-09T03:13:06.912Z,19.30
2018-07-09T03:15:36.088Z,19.30
2018-07-09T03:18:05.407Z,19.30
2018-07-09T03:20:34.730Z,19.30
2018-07-09T03:23:04.027Z,19.10
2018-07-09T03:25:33.195Z,19.00
2018-07-09T03:28:02.492Z,19.10
2018-07-09T03:30:31.810Z,19.10
2018-07-09T03:33:00.982Z,19.10
2018-07-09T03:35:30.209Z,19.10
2018-07-09T03:37:59.480Z,19.10
2018-07-09T03:42:57.610Z,19.20
2018-07-09T03:45:26.808Z,19.20
2018-07-09T03:47:56.021Z,19.20
2018-07-09T03:50:25.240Z,19.10
2018-07-09T03:52:54.453Z,19.10
2018-07-09T03:55:23.657Z,19.10
2018-07-09T03:57:52.862Z,19.10
2018-07-09T04:00:22.052Z,19.20
2018-07-09T04:02:51.221Z,19.10
2018-07-09T04:05:20.437Z,19.20
2018-07-09T04:07:49.586Z,19.10
2018-07-09T04:10:18.744Z,19.10
2018-07-09T04:12:47.961Z,19.10
2018-07-09T04:15:17.177Z,19.10
2018-07-09T04:17:47.328Z,19.10
2018-07-09T04:20:16.500Z,19.10
2018-07-09T04:22:45.737Z,19.00
2018-07-09T04:25:15.038Z,19.00
2018-07-09T04:27:44.211Z,18.90
2018-07-09T04:30:13.447Z,18.80
2018-07-09T04:32:42.611Z,18.70
2018-07-09T04:37:40.565Z,18.70
2018-07-09T04:40:09.748Z,18.70
2018-07-09T04:42:38.854Z,18.80
2018-07-09T04:45:08.057Z,18.80
2018-07-09T04:47:37.246Z,18.80
2018-07-09T04:50:06.511Z,18.70
2018-07-09T04:52:35.710Z,18.70
2018-07-09T04:55:04.899Z,18.60
2018-07-09T04:57:34.123Z,18.70
2018-07-09T05:00:03.453Z,18.70
2018-07-09T05:02:32.745Z,18.80
2018-07-09T05:05:02.425Z,18.90
2018-07-09T05:07:31.813Z,18.80
2018-07-09T05:10:01.131Z,18.90
2018-07-09T05:12:30.360Z,18.90
2018-07-09T05:14:59.536Z,18.90
2018-07-09T05:17:28.751Z,19.00
2018-07-09T05:19:57.950Z,19.00
2018-07-09T05:22:27.122Z,19.00
2018-07-09T05:24:56.397Z,19.10
2018-07-09T05:27:25.644Z,19.10
2018-07-09T05:29:54.816Z,19.10
2018-07-09T05:32:24.034Z,19.10
2018-07-09T05:34:53.204Z,19.20
2018-07-09T05:37:22.469Z,19.20
2018-07-09T05:39:51.672Z,19.40
2018-07-09T05:42:21.140Z,19.60
2018-07-09T05:44:50.330Z,19.70
2018-07-09T05:47:19.734Z,19.70
2018-07-09T05:49:49.184Z,19.70
2018-07-09T05:52:18.455Z,19.80
2018-07-09T05:54:47.648Z,19.90
2018-07-09T05:57:17.098Z,20.00
2018-07-09T05:59:46.462Z,19.90
2018-07-09T06:02:15.749Z,19.90
2018-07-09T06:04:44.989Z,19.90
2018-07-09T06:07:14.258Z,19.90
2018-07-09T06:09:43.549Z,19.80
2018-07-09T06:12:13.285Z,19.70
2018-07-09T06:14:42.476Z,19.80
2018-07-09T06:17:11.713Z,19.90
2018-07-09T06:19:40.986Z,19.90
2018-07-09T06:22:12.116Z,20.00
2018-07-09T06:27:10.180Z,20.20
2018-07-09T06:29:39.553Z,20.20
2018-07-09T06:32:08.895Z,20.30
2018-07-09T06:34:38.056Z,20.10
2018-07-09T06:37:07.321Z,20.40
2018-07-09T06:39:36.526Z,20.60
2018-07-09T06:42:05.772Z,20.80
2018-07-09T06:44:34.994Z,20.80
2018-07-09T06:47:04.229Z,21.20
2018-07-09T06:49:33.611Z,21.60
2018-07-09T06:52:03.110Z,22.10
2018-07-09T06:54:32.449Z,22.20
2018-07-09T06:57:01.757Z,22.70
2018-07-09T06:59:31.043Z,23.00
2018-07-09T07:02:01.185Z,23.60
2018-07-09T07:04:32.372Z,23.90
2018-07-09T07:07:01.912Z,24.40
2018-07-09T07:09:31.185Z,25.30
2018-07-09T07:12:00.528Z,25.60
2018-07-09T07:14:29.934Z,25.80
2018-07-09T07:16:59.134Z,25.70
2018-07-09T07:19:31.063Z,26.50
2018-07-09T07:22:00.729Z,26.80
2018-07-09T07:24:29.994Z,27.20
2018-07-09T07:26:59.423Z,27.60
2018-07-09T07:29:28.762Z,27.80
2018-07-09T07:31:57.982Z,28.50
2018-07-09T07:34:27.197Z,28.50
2018-07-09T07:36:56.490Z,29.50
2018-07-09T07:39:25.743Z,30.20
2018-07-09T07:41:54.984Z,29.80
2018-07-09T07:44:24.238Z,30.40
2018-07-09T07:46:53.496Z,30.40
2018-07-09T07:49:22.733Z,30.40
2018-07-09T07:51:51.975Z,30.20
2018-07-09T07:54:21.239Z,29.80
2018-07-09T07:56:50.521Z,30.80
2018-07-09T07:59:19.737Z,31.00
2018-07-09T08:01:49.122Z,30.70
2018-07-09T08:04:18.319Z,29.40
2018-07-09T08:06:47.748Z,29.20
2018-07-09T08:09:16.998Z,28.50
2018-07-09T08:11:49.193Z,27.80
2018-07-09T08:14:15.335Z,28.00
2018-07-09T08:16:44.545Z,28.10
2018-07-09T08:19:13.822Z,29.00
2018-07-09T08:21:43.190Z,29.40
2018-07-09T08:24:12.488Z,30.50
2018-07-09T08:26:41.765Z,30.90
2018-07-09T08:29:10.990Z,30.50
2018-07-09T08:31:40.420Z,30.50
2018-07-09T08:34:09.789Z,31.30
2018-07-09T08:36:38.994Z,31.60
2018-07-09T08:39:08.612Z,31.40
2018-07-09T08:41:37.941Z,31.50
2018-07-09T08:44:07.278Z,31.20
2018-07-09T08:49:05.493Z,31.60
2018-07-09T08:51:34.883Z,30.60
2018-07-09T08:54:04.226Z,30.20
2018-07-09T08:56:33.543Z,29.60
2018-07-09T08:59:03.525Z,29.60
2018-07-09T09:01:32.982Z,29.50
2018-07-09T09:04:02.599Z,29.30
2018-07-09T09:09:04.080Z,28.90
2018-07-09T09:11:33.380Z,28.10
2018-07-09T09:14:02.557Z,28.40
2018-07-09T09:16:31.695Z,28.00
2018-07-09T09:19:01.053Z,27.20
2018-07-09T09:21:30.336Z,26.70
2018-07-09T09:23:59.612Z,26.40
2018-07-09T09:26:28.825Z,25.90
2018-07-09T09:28:58.026Z,25.70
2018-07-09T09:31:27.290Z,25.80
2018-07-09T09:33:56.462Z,25.80
2018-07-09T09:36:25.650Z,26.10
2018-07-09T09:38:54.838Z,26.40
2018-07-09T09:41:24.065Z,26.50
2018-07-09T09:43:53.297Z,26.40
2018-07-09T09:46:22.524Z,26.20
2018-07-09T09:48:51.732Z,25.90
2018-07-09T09:53:49.894Z,25.80
2018-07-09T09:56:19.274Z,25.60
2018-07-09T09:58:48.450Z,25.40
2018-07-09T10:01:17.669Z,25.40
2018-07-09T10:03:46.890Z,25.50
2018-07-09T10:06:16.407Z,25.60
2018-07-09T10:08:45.571Z,26.00
2018-07-09T10:11:14.796Z,25.90
2018-07-09T10:13:44.010Z,25.80
2018-07-09T10:16:13.325Z,25.80
2018-07-09T10:18:42.640Z,25.80
2018-07-09T10:21:11.803Z,25.70
2018-07-09T10:23:41.227Z,25.70
2018-07-09T10:26:10.479Z,25.80
2018-07-09T10:28:39.857Z,25.80
2018-07-09T10:31:09.172Z,25.90
2018-07-09T10:33:38.413Z,26.20
2018-07-09T10:36:07.672Z,26.00
2018-07-09T10:38:36.921Z,26.00
2018-07-09T10:41:06.528Z,26.10
2018-07-09T10:43:35.748Z,26.10
2018-07-09T10:46:07.991Z,26.10
2018-07-09T10:48:37.280Z,26.10
2018-07-09T10:51:06.683Z,26.10
2018-07-09T10:53:36.146Z,26.10
2018-07-09T10:56:05.631Z,26.10
2018-07-09T10:58:34.880Z,26.00
2018-07-09T11:01:04.136Z,25.90
2018-07-09T11:03:33.470Z,25.90
2018-07-09T11:06:02.765Z,25.90
2018-07-09T11:08:32.207Z,26.00
2018-07-09T11:11:01.430Z,26.30
2018-07-09T11:13:30.757Z,26.60
2018-07-09T11:15:59.990Z,26.60
2018-07-09T11:18:29.291Z,26.60
2018-07-09T11:20:58.575Z,26.50
2018-07-09T11:23:27.797Z,26.60
2018-07-09T11:25:57.263Z,26.50
2018-07-09T11:28:27.412Z,26.40
2018-07-09T11:30:56.705Z,26.40
2018-07-09T11:33:25.933Z,26.40
2018-07-09T11:35:55.136Z,26.50
2018-07-09T11:38:24.407Z,26.60
2018-07-09T11:40:53.597Z,26.70
2018-07-09T11:43:22.801Z,26.60
2018-07-09T11:45:52.030Z,26.40
2018-07-09T11:48:21.241Z,26.40
2018-07-09T11:50:50.605Z,26.50
2018-07-09T11:53:19.926Z,26.70
2018-07-09T11:55:49.318Z,26.80
2018-07-09T11:58:18.580Z,27.00
2018-07-09T12:00:47.809Z,27.00
2018-07-09T12:03:17.034Z,27.10
2018-07-09T12:05:46.265Z,27.20
2018-07-09T12:08:15.674Z,27.20
2018-07-09T12:10:44.886Z,27.20
2018-07-09T12:13:14.112Z,27.30
2018-07-09T12:15:43.377Z,27.40
2018-07-09T12:18:12.611Z,27.50
2018-07-09T12:20:41.875Z,27.50
2018-07-09T12:23:11.180Z,27.50
2018-07-09T12:25:40.474Z,27.60
2018-07-09T12:28:09.740Z,27.70
2018-07-09T12:30:38.967Z,27.90
2018-07-09T12:33:08.231Z,28.10
2018-07-09T12:35:37.463Z,28.10
2018-07-09T12:38:06.814Z,28.00
2018-07-09T12:40:36.013Z,27.70
2018-07-09T12:43:05.461Z,27.30
2018-07-09T12:45:34.713Z,27.00
2018-07-09T12:48:04.011Z,26.80
2018-07-09T12:50:33.242Z,26.70
2018-07-09T12:53:02.495Z,26.80
2018-07-09T12:55:31.725Z,26.60
2018-07-09T12:58:01.006Z,26.50
2018-07-09T13:00:30.322Z,26.50
2018-07-09T13:02:59.501Z,26.70
2018-07-09T13:05:28.825Z,26.90
2018-07-09T13:07:58.054Z,27.00
2018-07-09T13:10:27.309Z,27.00
2018-07-09T13:12:56.711Z,27.10
2018-07-09T13:15:26.072Z,27.30
2018-07-09T13:17:55.405Z,27.40
2018-07-09T13:20:24.693Z,27.40
2018-07-09T13:22:54.029Z,27.50
2018-07-09T13:25:23.261Z,27.50
2018-07-09T13:27:52.514Z,27.50
2018-07-09T13:30:21.960Z,27.60
2018-07-09T13:32:51.254Z,27.60
2018-07-09T13:35:20.530Z,27.70
2018-07-09T13:37:49.811Z,27.60
2018-07-09T13:40:19.084Z,27.60
2018-07-09T13:42:48.335Z,27.60
2018-07-09T13:45:17.683Z,27.70
2018-07-09T13:47:46.964Z,27.70
2018-07-09T13:50:16.200Z,27.40
2018-07-09T13:52:45.445Z,27.20
2018-07-09T13:55:14.731Z,27.20
2018-07-09T13:57:43.997Z,27.20
2018-07-09T14:00:13.298Z,27.40
2018-07-09T14:02:42.493Z,27.60
2018-07-09T14:05:11.848Z,27.60
2018-07-09T14:07:41.205Z,27.60
2018-07-09T14:10:10.986Z,27.50
2018-07-09T14:12:40.312Z,27.60
2018-07-09T14:15:09.640Z,27.70
2018-07-09T14:17:38.938Z,27.60
2018-07-09T14:22:43.370Z,27.20
2018-07-09T14:25:12.706Z,27.20
2018-07-09T14:30:10.632Z,27.30
2018-07-09T14:32:40.085Z,27.20
2018-07-09T14:37:38.142Z,27.00
2018-07-09T14:40:07.401Z,27.00
2018-07-09T14:42:36.886Z,26.80
2018-07-09T14:50:04.727Z,27.00
2018-07-09T14:52:34.101Z,27.00
2018-07-09T14:55:03.403Z,27.10
2018-07-09T14:57:32.751Z,27.00
2018-07-09T15:00:02.157Z,27.10
2018-07-09T15:02:31.809Z,27.20
2018-07-09T15:05:01.245Z,27.30
2018-07-09T15:07:30.547Z,27.30
2018-07-09T15:09:59.752Z,27.30
2018-07-09T15:12:29.263Z,27.30
2018-07-09T15:14:59.053Z,27.20
2018-07-09T15:17:28.425Z,27.20
2018-07-09T15:19:57.750Z,27.40
2018-07-09T15:22:27.035Z,27.50
2018-07-09T15:24:56.369Z,27.40
2018-07-09T15:27:25.700Z,27.30
2018-07-09T15:29:55.081Z,27.30
2018-07-09T15:32:31.695Z,27.10
2018-07-09T15:37:30.238Z,27.20
2018-07-09T15:39:59.983Z,27.20
2018-07-09T15:42:29.311Z,27.10
2018-07-09T15:44:58.817Z,27.10
2018-07-09T15:47:28.236Z,27.00
2018-07-09T15:49:57.499Z,26.90
2018-07-09T15:54:56.035Z,26.90
2018-07-09T15:57:25.213Z,26.80
2018-07-09T15:59:54.414Z,26.90
2018-07-09T16:02:23.695Z,26.90
2018-07-09T16:04:52.887Z,27.00
2018-07-09T16:07:22.832Z,26.90
2018-07-09T16:09:52.111Z,27.00
2018-07-09T16:12:21.939Z,27.10
2018-07-09T16:14:51.320Z,27.00
2018-07-09T16:17:21.087Z,26.90
2018-07-09T16:19:50.542Z,26.80
2018-07-09T16:22:20.073Z,26.80
2018-07-09T16:24:49.434Z,26.80
2018-07-09T16:27:18.685Z,26.80
2018-07-09T16:29:47.974Z,26.80
2018-07-09T16:32:17.346Z,27.00
2018-07-09T16:37:15.441Z,27.10
2018-07-09T16:39:44.681Z,27.20
2018-07-09T16:42:13.923Z,27.20
2018-07-09T16:44:43.173Z,27.20
2018-07-09T16:47:12.882Z,27.00
2018-07-09T16:49:42.212Z,27.00
2018-07-09T16:52:11.501Z,27.00
2018-07-09T16:54:40.875Z,26.90
2018-07-09T16:57:10.056Z,26.90
2018-07-09T16:59:39.405Z,26.90
2018-07-09T17:02:08.585Z,26.80
2018-07-09T17:04:37.793Z,26.80
2018-07-09T17:07:07.202Z,26.80
2018-07-09T17:09:36.535Z,26.70
2018-07-09T17:12:05.891Z,26.60
2018-07-09T17:14:35.162Z,26.60
2018-07-09T17:17:04.503Z,26.50
2018-07-09T17:19:33.753Z,26.40
2018-07-09T17:22:02.967Z,26.50
2018-07-09T17:24:32.182Z,26.40
2018-07-09T17:27:01.516Z,26.40
2018-07-09T17:29:30.632Z,26.20
2018-07-09T17:34:28.658Z,26.10
2018-07-09T17:36:57.842Z,26.10
2018-07-09T17:39:27.407Z,26.10
2018-07-09T17:41:57.638Z,26.10
2018-07-09T17:44:26.835Z,26.10
2018-07-09T17:46:56.243Z,26.10
2018-07-09T17:49:25.446Z,26.10
2018-07-09T17:51:54.724Z,26.20
2018-07-09T17:54:24.292Z,26.10
2018-07-09T17:56:53.621Z,26.10
2018-07-09T17:59:23.034Z,26.20
2018-07-09T18:01:52.363Z,26.10
2018-07-09T18:04:21.976Z,26.00
2018-07-09T18:06:51.192Z,26.00
2018-07-09T18:09:20.783Z,26.00
2018-07-09T18:11:50.085Z,26.00
2018-07-09T18:14:19.771Z,26.00
2018-07-09T18:16:49.381Z,26.00
2018-07-09T18:19:18.744Z,25.90
2018-07-09T18:21:48.015Z,25.80
2018-07-09T18:24:17.329Z,25.80
2018-07-09T18:26:46.605Z,25.80
2018-07-09T18:29:15.886Z,25.80
2018-07-09T18:31:45.650Z,25.70
2018-07-09T18:36:49.013Z,25.80
2018-07-09T18:39:18.337Z,25.70
2018-07-09T18:41:47.954Z,25.70
2018-07-09T18:44:17.273Z,25.60
2018-07-09T18:46:47.195Z,25.60
2018-07-09T18:49:16.485Z,25.60
2018-07-09T18:51:45.942Z,25.50
2018-07-09T18:54:15.296Z,25.50
2018-07-09T18:56:44.618Z,25.50
2018-07-09T18:59:15.023Z,25.40
2018-07-09T19:01:44.704Z,25.40
2018-07-09T19:04:14.167Z,25.40
2018-07-09T19:06:55.468Z,25.30
2018-07-09T19:09:25.831Z,25.30
2018-07-09T19:11:55.362Z,25.30
2018-07-09T19:14:37.163Z,25.20
2018-07-09T19:18:26.432Z,25.20
2018-07-09T19:21:38.945Z,25.10
2018-07-09T19:24:08.385Z,25.10
2018-07-09T19:26:36.905Z,25.10
2018-07-09T19:29:05.007Z,25.10
2018-07-09T19:31:33.086Z,25.00
2018-07-09T19:34:01.212Z,25.00
2018-07-09T19:36:29.490Z,25.00
2018-07-09T19:38:57.754Z,24.90
2018-07-09T19:41:27.962Z,24.90
2018-07-09T19:43:55.981Z,24.90
2018-07-09T19:46:24.353Z,24.80
2018-07-09T19:48:52.432Z,24.70
2018-07-09T19:51:20.519Z,24.70
2018-07-09T19:53:48.684Z,24.60
2018-07-09T19:56:16.707Z,24.60
2018-07-09T19:58:44.947Z,24.60
2018-07-09T20:01:13.037Z,24.50
2018-07-09T20:03:43.228Z,24.40
2018-07-09T20:06:11.368Z,24.40
2018-07-09T20:08:44.896Z,24.40
2018-07-09T20:11:18.153Z,24.40
2018-07-09T20:14:01.499Z,24.30
2018-07-09T20:16:34.944Z,24.40
2018-07-09T20:19:03.343Z,24.40
2018-07-09T20:21:31.507Z,24.40
2018-07-09T20:24:00.009Z,24.30
2018-07-09T20:26:28.236Z,24.30
2018-07-09T20:28:58.757Z,24.20
2018-07-09T20:31:26.931Z,24.20
2018-07-09T20:33:55.004Z,24.10
2018-07-09T20:36:23.265Z,24.00
2018-07-09T20:38:51.347Z,24.00
2018-07-09T20:41:19.893Z,24.00
2018-07-09T20:43:48.032Z,24.00
2018-07-09T20:46:16.069Z,24.00
2018-07-09T20:48:44.157Z,23.80
2018-07-09T20:51:12.342Z,23.80
2018-07-09T20:53:41.951Z,23.80
2018-07-09T20:56:10.448Z,23.80
2018-07-09T20:58:38.614Z,23.80
2018-07-09T21:01:07.391Z,23.80
2018-07-09T21:03:35.901Z,23.70
2018-07-09T21:06:05.983Z,23.70
2018-07-09T21:08:34.223Z,23.70
2018-07-09T21:11:03.221Z,23.70
2018-07-09T21:16:00.925Z,23.60
2018-07-09T21:18:28.757Z,23.60
2018-07-09T21:20:56.914Z,23.60
2018-07-09T21:23:25.687Z,23.50
2018-07-09T21:25:54.007Z,23.50
2018-07-09T21:28:22.136Z,23.40
2018-07-09T21:30:50.170Z,23.30
2018-07-09T21:33:18.366Z,23.30
2018-07-09T21:35:46.605Z,23.20
2018-07-09T21:38:15.658Z,23.30
2018-07-09T21:40:43.764Z,23.20
2018-07-09T21:43:12.331Z,23.10
2018-07-09T21:45:40.550Z,23.00
2018-07-09T21:48:10.559Z,22.90
2018-07-09T21:50:37.322Z,23.00
2018-07-09T21:53:06.057Z,23.00
2018-07-09T21:55:34.097Z,23.10
2018-07-09T21:58:03.394Z,22.90
2018-07-09T22:00:31.451Z,23.00
2018-07-09T22:02:59.485Z,23.00
2018-07-09T22:05:27.630Z,22.90
2018-07-09T22:07:57.914Z,22.90
2018-07-09T22:10:26.382Z,23.00
2018-07-09T22:12:54.556Z,22.90
2018-07-09T22:15:22.568Z,22.90
2018-07-09T22:22:48.248Z,23.00
2018-07-09T22:25:17.470Z,22.90
2018-07-09T22:27:45.703Z,22.90
2018-07-09T22:30:13.789Z,22.80
2018-07-09T22:32:43.106Z,22.80
2018-07-09T22:35:12.624Z,22.70
2018-07-09T22:37:41.978Z,22.70
2018-07-09T22:42:40.116Z,22.80
2018-07-09T22:45:09.438Z,22.70
2018-07-09T22:47:38.827Z,22.80
2018-07-09T22:50:08.637Z,22.80
2018-07-09T22:52:39.453Z,22.80
2018-07-09T22:55:19.904Z,22.60
2018-07-09T22:57:49.296Z,22.70
2018-07-09T23:00:20.980Z,22.70
2018-07-09T23:03:02.301Z,22.60
2018-07-09T23:05:31.511Z,22.60
2018-07-09T23:08:01.027Z,22.80
2018-07-09T23:11:38.042Z,22.80
2018-07-09T23:16:46.314Z,22.80
2018-07-09T23:19:27.950Z,22.60
2018-07-09T23:22:08.511Z,22.60
2018-07-09T23:24:36.740Z,22.50
2018-07-09T23:27:04.920Z,22.50
2018-07-09T23:29:32.927Z,22.50
2018-07-09T23:32:00.998Z,22.40
2018-07-09T23:34:29.042Z,22.40
2018-07-09T23:36:57.054Z,22.40
2018-07-09T23:39:25.091Z,22.30
2018-07-09T23:41:53.119Z,22.20
2018-07-09T23:44:21.265Z,22.20
2018-07-09T23:46:49.446Z,22.20
2018-07-09T23:49:17.507Z,22.20
2018-07-09T23:51:45.571Z,22.00
2018-07-09T23:54:13.605Z,22.10
2018-07-09T23:57:08.698Z,22.10
2018-07-09T23:59:50.755Z,22.00
